sensor_id;sensor_type;location;lat;lon;timestamp;P1;durP1;ratioP1;P2;durP2;ratioP2
53925;SDS011;39836;52.754;6.866;2023-05-07T10:44:46;25.55;;;20.85;;
53925;SDS011;39836;52.754;6.866;2023-05-07T10:47:16;26.50;;;21.40;;
53925;SDS011;39836;52.754;6.866;2023-05-07T10:54:39;27.73;;;22.00;;
53925;SDS011;39836;52.754;6.866;2023-05-07T10:59:57;25.55;;;20.77;;
53925;SDS011;39836;52.754;6.866;2023-05-07T11:02:23;26.52;;;21.05;;
53925;SDS011;39836;52.754;6.866;2023-05-07T11:05:28;27.95;;;20.48;;
53925;SDS011;39836;52.754;6.866;2023-05-07T11:07:55;27.13;;;20.45;;
53925;SDS011;39836;52.754;6.866;2023-05-07T11:13:12;27.27;;;20.60;;
53925;SDS011;39836;52.754;6.866;2023-05-07T11:15:41;31.13;;;23.23;;
53925;SDS011;39836;52.754;6.866;2023-05-07T11:18:09;24.02;;;19.75;;
53925;SDS011;39836;52.754;6.866;2023-05-07T11:26:03;25.50;;;22.60;;
53925;SDS011;39836;52.754;6.866;2023-05-07T11:28:30;23.95;;;21.13;;
53925;SDS011;39836;52.754;6.866;2023-05-07T11:30:57;28.52;;;21.92;;
53925;SDS011;39836;52.754;6.866;2023-05-07T11:33:23;26.85;;;20.95;;
53925;SDS011;39836;52.754;6.866;2023-05-07T11:35:55;23.67;;;20.77;;
53925;SDS011;39836;52.754;6.866;2023-05-07T11:38:21;26.67;;;21.35;;
53925;SDS011;39836;52.754;6.866;2023-05-07T11:40:56;24.75;;;20.83;;
53925;SDS011;39836;52.754;6.866;2023-05-07T11:43:27;26.90;;;21.90;;
53925;SDS011;39836;52.754;6.866;2023-05-07T11:45:53;25.50;;;19.88;;
53925;SDS011;39836;52.754;6.866;2023-05-07T11:48:20;25.15;;;21.08;;
53925;SDS011;39836;52.754;6.866;2023-05-07T11:51:00;26.02;;;20.95;;
53925;SDS011;39836;52.754;6.866;2023-05-07T11:53:28;23.75;;;20.67;;
53925;SDS011;39836;52.754;6.866;2023-05-07T11:56:05;24.65;;;20.25;;
53925;SDS011;39836;52.754;6.866;2023-05-07T11:58:35;24.65;;;20.55;;
53925;SDS011;39836;52.754;6.866;2023-05-07T12:01:01;23.05;;;20.05;;
53925;SDS011;39836;52.754;6.866;2023-05-07T12:03:28;26.05;;;19.88;;
53925;SDS011;39836;52.754;6.866;2023-05-07T12:05:53;23.25;;;20.40;;
53925;SDS011;39836;52.754;6.866;2023-05-07T12:08:20;23.50;;;19.88;;
53925;SDS011;39836;52.754;6.866;2023-05-07T12:10:48;23.17;;;20.27;;
53925;SDS011;39836;52.754;6.866;2023-05-07T12:15:41;24.83;;;20.52;;
53925;SDS011;39836;52.754;6.866;2023-05-07T12:18:08;23.83;;;20.17;;
53925;SDS011;39836;52.754;6.866;2023-05-07T12:20:35;23.77;;;18.42;;
53925;SDS011;39836;52.754;6.866;2023-05-07T12:23:01;30.60;;;19.27;;
53925;SDS011;39836;52.754;6.866;2023-05-07T12:25:31;22.52;;;18.13;;
53925;SDS011;39836;52.754;6.866;2023-05-07T12:28:00;25.17;;;18.98;;
53925;SDS011;39836;52.754;6.866;2023-05-07T12:30:26;23.67;;;20.20;;
53925;SDS011;39836;52.754;6.866;2023-05-07T12:32:52;20.75;;;18.17;;
53925;SDS011;39836;52.754;6.866;2023-05-07T12:35:31;21.38;;;18.30;;
53925;SDS011;39836;52.754;6.866;2023-05-07T12:38:01;19.70;;;17.60;;
53925;SDS011;39836;52.754;6.866;2023-05-07T12:40:36;22.60;;;17.77;;
53925;SDS011;39836;52.754;6.866;2023-05-07T12:43:03;21.73;;;16.92;;
53925;SDS011;39836;52.754;6.866;2023-05-07T12:45:29;19.83;;;16.63;;
53925;SDS011;39836;52.754;6.866;2023-05-07T12:47:55;17.67;;;15.23;;
53925;SDS011;39836;52.754;6.866;2023-05-07T12:50:26;21.13;;;17.33;;
53925;SDS011;39836;52.754;6.866;2023-05-07T12:52:55;17.17;;;15.27;;
53925;SDS011;39836;52.754;6.866;2023-05-07T12:55:21;16.77;;;14.98;;
53925;SDS011;39836;52.754;6.866;2023-05-07T12:57:50;19.25;;;17.05;;
53925;SDS011;39836;52.754;6.866;2023-05-07T13:00:18;19.75;;;15.82;;
53925;SDS011;39836;52.754;6.866;2023-05-07T13:02:58;19.67;;;17.25;;
53925;SDS011;39836;52.754;6.866;2023-05-07T13:05:23;17.90;;;15.80;;
53925;SDS011;39836;52.754;6.866;2023-05-07T13:07:53;18.80;;;16.65;;
53925;SDS011;39836;52.754;6.866;2023-05-07T13:10:22;20.17;;;17.50;;
53925;SDS011;39836;52.754;6.866;2023-05-07T13:12:48;18.20;;;16.10;;
53925;SDS011;39836;52.754;6.866;2023-05-07T13:15:14;18.80;;;16.08;;
53925;SDS011;39836;52.754;6.866;2023-05-07T13:17:40;18.75;;;15.27;;
53925;SDS011;39836;52.754;6.866;2023-05-07T13:20:06;19.13;;;15.25;;
53925;SDS011;39836;52.754;6.866;2023-05-07T13:22:33;20.25;;;15.43;;
53925;SDS011;39836;52.754;6.866;2023-05-07T13:24:59;17.23;;;15.13;;
53925;SDS011;39836;52.754;6.866;2023-05-07T13:27:25;17.40;;;14.68;;
53925;SDS011;39836;52.754;6.866;2023-05-07T13:29:51;18.75;;;15.98;;
53925;SDS011;39836;52.754;6.866;2023-05-07T13:32:16;16.88;;;15.05;;
53925;SDS011;39836;52.754;6.866;2023-05-07T13:34:42;19.83;;;14.43;;
53925;SDS011;39836;52.754;6.866;2023-05-07T13:37:08;18.40;;;15.60;;
53925;SDS011;39836;52.754;6.866;2023-05-07T13:39:34;16.08;;;14.38;;
53925;SDS011;39836;52.754;6.866;2023-05-07T13:41:59;16.85;;;15.05;;
53925;SDS011;39836;52.754;6.866;2023-05-07T13:44:26;17.10;;;15.05;;
53925;SDS011;39836;52.754;6.866;2023-05-07T13:46:51;17.83;;;14.93;;
53925;SDS011;39836;52.754;6.866;2023-05-07T13:49:17;17.88;;;14.98;;
53925;SDS011;39836;52.754;6.866;2023-05-07T13:51:43;16.77;;;14.05;;
53925;SDS011;39836;52.754;6.866;2023-05-07T13:54:09;14.98;;;13.48;;
53925;SDS011;39836;52.754;6.866;2023-05-07T13:56:34;14.65;;;13.15;;
53925;SDS011;39836;52.754;6.866;2023-05-07T13:59:00;15.18;;;13.38;;
53925;SDS011;39836;52.754;6.866;2023-05-07T14:01:26;14.48;;;13.05;;
53925;SDS011;39836;52.754;6.866;2023-05-07T14:03:52;15.23;;;13.63;;
53925;SDS011;39836;52.754;6.866;2023-05-07T14:06:18;14.07;;;12.55;;
53925;SDS011;39836;52.754;6.866;2023-05-07T14:08:43;16.70;;;14.05;;
53925;SDS011;39836;52.754;6.866;2023-05-07T14:11:09;16.73;;;13.90;;
53925;SDS011;39836;52.754;6.866;2023-05-07T14:13:35;15.43;;;12.85;;
53925;SDS011;39836;52.754;6.866;2023-05-07T14:16:01;16.35;;;13.77;;
53925;SDS011;39836;52.754;6.866;2023-05-07T14:18:26;14.70;;;13.07;;
53925;SDS011;39836;52.754;6.866;2023-05-07T14:20:54;13.88;;;12.02;;
53925;SDS011;39836;52.754;6.866;2023-05-07T14:23:19;13.35;;;12.00;;
53925;SDS011;39836;52.754;6.866;2023-05-07T14:25:50;14.25;;;12.32;;
53925;SDS011;39836;52.754;6.866;2023-05-07T14:28:16;13.50;;;11.48;;
53925;SDS011;39836;52.754;6.866;2023-05-07T14:30:42;13.00;;;11.52;;
53925;SDS011;39836;52.754;6.866;2023-05-07T14:33:07;15.85;;;13.75;;
53925;SDS011;39836;52.754;6.866;2023-05-07T14:35:33;14.73;;;12.77;;
53925;SDS011;39836;52.754;6.866;2023-05-07T14:37:59;14.15;;;12.70;;
53925;SDS011;39836;52.754;6.866;2023-05-07T14:40:24;14.95;;;13.38;;
53925;SDS011;39836;52.754;6.866;2023-05-07T14:42:50;15.32;;;13.73;;
53925;SDS011;39836;52.754;6.866;2023-05-07T14:45:16;17.58;;;14.40;;
53925;SDS011;39836;52.754;6.866;2023-05-07T14:47:42;16.38;;;14.68;;
53925;SDS011;39836;52.754;6.866;2023-05-07T14:50:07;16.38;;;13.90;;
53925;SDS011;39836;52.754;6.866;2023-05-07T14:52:33;15.88;;;14.18;;
53925;SDS011;39836;52.754;6.866;2023-05-07T14:54:59;18.20;;;14.57;;
53925;SDS011;39836;52.754;6.866;2023-05-07T14:57:25;19.15;;;15.27;;
53925;SDS011;39836;52.754;6.866;2023-05-07T14:59:51;17.20;;;15.43;;
53925;SDS011;39836;52.754;6.866;2023-05-07T15:02:16;18.77;;;15.02;;
53925;SDS011;39836;52.754;6.866;2023-05-07T15:04:43;18.40;;;15.48;;
53925;SDS011;39836;52.754;6.866;2023-05-07T15:07:14;17.60;;;14.20;;
53925;SDS011;39836;52.754;6.866;2023-05-07T15:09:41;17.48;;;15.30;;
53925;SDS011;39836;52.754;6.866;2023-05-07T15:12:07;16.25;;;14.55;;
53925;SDS011;39836;52.754;6.866;2023-05-07T15:14:33;16.08;;;14.00;;
53925;SDS011;39836;52.754;6.866;2023-05-07T15:16:59;17.85;;;14.55;;
53925;SDS011;39836;52.754;6.866;2023-05-07T15:19:25;18.33;;;15.38;;
53925;SDS011;39836;52.754;6.866;2023-05-07T15:21:54;15.40;;;13.65;;
53925;SDS011;39836;52.754;6.866;2023-05-07T15:24:24;16.98;;;13.32;;
53925;SDS011;39836;52.754;6.866;2023-05-07T15:26:53;17.17;;;13.75;;
53925;SDS011;39836;52.754;6.866;2023-05-07T15:29:19;17.77;;;15.85;;
53925;SDS011;39836;52.754;6.866;2023-05-07T15:31:45;24.05;;;14.35;;
53925;SDS011;39836;52.754;6.866;2023-05-07T15:34:11;16.98;;;15.18;;
53925;SDS011;39836;52.754;6.866;2023-05-07T15:36:37;17.55;;;15.30;;
53925;SDS011;39836;52.754;6.866;2023-05-07T15:39:03;17.25;;;15.35;;
53925;SDS011;39836;52.754;6.866;2023-05-07T15:41:29;18.10;;;16.23;;
53925;SDS011;39836;52.754;6.866;2023-05-07T15:43:55;17.70;;;15.57;;
53925;SDS011;39836;52.754;6.866;2023-05-07T15:46:21;18.80;;;16.80;;
53925;SDS011;39836;52.754;6.866;2023-05-07T15:48:51;18.52;;;16.60;;
53925;SDS011;39836;52.754;6.866;2023-05-07T15:51:17;20.20;;;16.40;;
53925;SDS011;39836;52.754;6.866;2023-05-07T15:53:44;19.98;;;17.92;;
53925;SDS011;39836;52.754;6.866;2023-05-07T15:56:09;18.67;;;16.88;;
53925;SDS011;39836;52.754;6.866;2023-05-07T15:58:36;18.98;;;16.98;;
53925;SDS011;39836;52.754;6.866;2023-05-07T16:01:01;19.08;;;16.10;;
53925;SDS011;39836;52.754;6.866;2023-05-07T16:03:29;18.05;;;16.13;;
53925;SDS011;39836;52.754;6.866;2023-05-07T16:05:55;19.95;;;16.35;;
53925;SDS011;39836;52.754;6.866;2023-05-07T16:08:27;18.42;;;16.52;;
53925;SDS011;39836;52.754;6.866;2023-05-07T16:10:53;17.05;;;15.35;;
53925;SDS011;39836;52.754;6.866;2023-05-07T16:13:19;16.67;;;14.90;;
53925;SDS011;39836;52.754;6.866;2023-05-07T16:15:45;16.80;;;15.10;;
53925;SDS011;39836;52.754;6.866;2023-05-07T16:18:12;16.08;;;14.32;;
53925;SDS011;39836;52.754;6.866;2023-05-07T16:20:40;17.63;;;14.60;;
53925;SDS011;39836;52.754;6.866;2023-05-07T16:23:10;16.90;;;15.10;;
53925;SDS011;39836;52.754;6.866;2023-05-07T16:25:37;17.90;;;16.05;;
53925;SDS011;39836;52.754;6.866;2023-05-07T16:28:06;18.88;;;16.60;;
